Huvudsida
METAR-TAF:

METAR-TAF

Flygplatser :

Chengdu Shuangliu International Airport

Chengdu, Kina

latitud: 30-40N, longitud: 104-01E, höjd: 508 m

Aktuellt väderrapport

Denna rapport gjordes för 45 minuter sedan, klockan 11:00 UTC
Vind 6 kt från ost/nordost, varierande mellan nordost och ost
Temperatur 23°C
Fuktighet 78%
Tryck 1010 hPa
Sikt 10 km eller mer
Brutna moln på en höjd av 2600 ft

METAR: ZUUU 251100Z 07003MPS 040V100 9999 BKN026 23/19 Q1010 NOSIG

Tid: 19:45 (11:45 UTC)

Väderprognos

Denna rapport gjordes för 3 timmar och 36 minuter sedan, klockan 08:09 UTC
Prognos gäller från 25 kl. 12 UTC till 26 kl. 12 UTC
Vind 6 kt från nord/nordost
Sikt: 5000 m
Få moln på en höjd av 1000 ft
Spridda moln på en höjd av 4000 ft
fuktdis
Temporärt
från 25 kl. 22 UTC till 26 kl. 02 UTC
lätta regnskurar

TAF: ZUUU 250809Z 2512/2612 03003MPS 5000 BR FEW010 SCT040 TX23/2607Z TN20/2523Z TEMPO 2522/2602 -SHRA

Aktuella väderrapporter och prognoser från 4000 flygplatser (METAR- och TAF-rapporter).

De tillgängliga stationerna syns som gula och röda prickar på kartan.

För musen över prickarna för att se namnen på stationerna.

Klicka sedan för att få väderrapporter och prognoser.

För att ändra kartan: Klicka på de gröna knapparna med ett svart kors på för att zooma in; den gröna knappen med ett streck på för att zooma ut; eller på de gröna pilarna för angränsande kartor.


METAR-TAF: